WEATHER DATA

YESTERDAY
Time Temp. Dewp. Hum. Bar.
00:02 5.8 4.8 93 1013
00:11 5.8 4.8 93 1013
00:21 5.8 4.8 93 1013
00:32 5.8 4.8 93 1013.1
00:42 5.8 4.8 93 1013.1
00:51 5.8 4.8 93 1013
01:01 5.7 4.7 93 1012.9
01:12 5.7 4.5 92 1012.9
01:22 5.6 4.6 93 1012.9
01:31 5.6 4.6 93 1012.9
01:42 5.6 4.6 93 1012.9
01:52 5.6 4.6 93 1013
02:02 5.6 4.6 93 1013
02:12 5.6 4.7 94 1013
02:22 5.6 4.7 94 1013
02:32 5.6 4.7 94 1013
02:42 5.6 4.7 94 1013
02:52 5.6 4.7 94 1013
03:02 5.6 4.7 94 1013
03:12 5.6 4.7 94 1012.9
03:22 5.6 4.7 94 1013
03:32 5.6 4.7 94 1012.9
03:42 5.6 4.7 94 1013
03:52 5.5 4.6 94 1013
04:03 5.5 4.6 94 1013
04:12 5.5 4.6 94 1013.1
04:22 5.5 4.6 94 1013.1
04:33 5.5 4.6 94 1013.2
04:43 5.6 4.9 95 1013.2
04:52 5.6 4.9 95 1013.2
05:02 5.6 4.9 95 1013.4
05:13 5.6 4.9 95 1013.2
05:23 5.6 4.9 95 1013.2
05:33 5.6 4.7 94 1013.2
05:43 5.6 4.7 94 1013.2
05:53 5.6 4.7 94 1013.2
06:03 5.7 4.8 94 1013.2
06:13 5.7 4.8 94 1013.2
06:23 5.7 4.8 94 1013.4
06:33 5.8 4.9 94 1013.4
06:43 5.8 4.9 94 1013.5
06:54 5.8 4.9 94 1013.5
07:03 5.8 4.9 94 1013.6
07:13 5.7 4.8 94 1013.7
07:23 5.7 4.8 94 1013.8
07:34 5.7 4.8 94 1013.8
07:43 5.7 4.8 94 1013.8
07:53 5.8 5.1 95 1013.9
08:04 5.9 5.2 95 1013.8
08:14 5.9 5.2 95 1013.9
08:23 6.1 5.4 95 1014.1
08:33 6.2 5.5 95 1014.1
08:44 6.3 5.6 95 1014.2
08:54 6.4 5.7 95 1014.3
09:03 6.5 5.8 95 1014.6
09:14 6.5 5.8 95 1014.6
09:24 6.7 6 95 1014.7
09:34 7.5 6.9 96 1014.7
09:44 8.6 7.8 95 1014.8
09:54 11.6 10.3 92 1014.9
10:04 15.5 11.7 78 1015.1
10:14 18.6 10.9 61 1015.1
10:24 20.7 12.9 61 1015.2
10:34 23.2 13.9 56 1015.3
10:44 24.6 15.2 56 1015.3
10:54 26.2 13.7 46 1015.5
11:04 27.3 14 44 1015.5
11:14 27.9 15.9 48 1015.6
11:24 29.2 16.7 47 1015.7
11:35 30 16.4 44 1015.8
11:44 30.7 16.3 42 1015.8
11:54 29 15.9 45 1015.8
12:05 26.3 13.8 46 1015.8
12:15 24.2 13.7 52 1015.8
12:24 27.5 16.5 51 1015.8
12:34 30 17.5 47 1015.8
12:45 31.9 17.4 42 1015.8
12:55 32.4 17.1 40 1015.8
13:04 32.9 16.3 37 1015.8
13:15 32.4 16.7 39 1015.8
13:25 29.2 14.6 41 1015.7
13:35 29 14.8 42 1015.7
13:45 27.2 13.2 42 1015.8
13:55 25.3 11.5 42 1015.8
14:05 22.9 11.6 49 1015.7
14:15 22.8 12.4 52 1015.7
14:26 23.7 12.1 48 1015.7
14:35 25.3 13.5 48 1015.7
14:45 26.3 12.4 42 1015.7
14:55 23 10.4 45 1015.8
15:06 20.6 10.4 52 1015.7
15:15 23.4 12.7 51 1015.7
15:25 24.4 12 46 1015.7
15:36 22.2 10.4 47 1015.7
15:46 19.5 9.4 52 1015.7
15:55 18.5 9.3 55 1015.8
16:05 17.8 9.4 58 1015.9
16:16 17.3 8.4 56 1015.8
16:26 16.4 8.6 60 1015.9
16:35 15.8 8.5 62 1015.9
16:46 15.1 8.1 63 1015.9
16:56 14.7 8.2 65 1016
17:06 14.5 8 65 1016
17:16 14.4 8.1 66 1016
17:26 14 8 67 1016
17:36 13.5 7.7 68 1016.1
17:46 13 7.7 70 1016.2
17:56 12.7 7.8 72 1016.3
18:06 12.3 7.6 73 1016.4
18:16 12 7.5 74 1016.6
18:26 11.7 7.4 75 1016.6
18:36 11.4 7.1 75 1016.6
18:46 11 6.7 75 1016.7
18:56 10.6 6.6 76 1016.8
19:07 10.1 6.3 77 1016.9
19:16 10 6.3 78 1017
19:26 9.7 6.2 79 1017
19:37 9.7 6.8 82 1017
19:47 9.7 7 83 1017
19:56 9.8 7.2 84 1017
20:06 9.8 7.2 84 1017
20:17 9.8 7.4 85 1017.1
20:27 9.9 7.5 85 1017.1
20:36 9.9 7.7 86 1017.1
20:47 9.8 7.9 88 1017.2
20:57 9.8 7.7 87 1017.2
21:07 9.8 7.7 87 1017.2
21:27 9.8 7.7 87 1017.3
21:37 9.7 7.6 87 1017.4
21:47 9.7 8 89 1017.6
21:58 9.6 7.9 89 1017.6
22:07 9.6 7.7 88 1017.4
22:17 9.6 7.5 87 1017.4
22:27 9.5 7.4 87 1017.4
22:47 9.4 7.3 87 1017.4
22:57 9.4 7.5 88 1017.4
23:08 9.4 7.5 88 1017.4
23:18 9.3 7.4 88 1017.3
23:58 9.1 7.2 88 1017.1

DAY STATISTIC

2020-09-29
TEMPERATURE
AVERAGE
12.7
HIGH
32.9
13:04
LOW
5.5
03:52
PRESSURE
AVERAGE
1015.0
HIGH
1017.6
21:47
LOW
1012.9
01:01
DEWPOINT
AVERAGE
8.1
HIGH
17.5
12:34
LOW
4.5
01:12
HUMIDITY
AVERAGE
77
HIGH
96
09:34
LOW
37
13:04
TEMPERATURE (°C)
LOW
5.5
HIGH
32.9
AVERAGE
12.7
PRESSURE (hpa)
LOW
1012.9
HIGH
1017.6
AVERAGE
1015.0
DEVICE